createdAt,value
2018-05-19T00:01:03.087Z,12.90
2018-05-19T00:03:30.670Z,12.80
2018-05-19T00:05:58.363Z,12.80
2018-05-19T00:08:26.701Z,12.60
2018-05-19T00:10:54.301Z,12.60
2018-05-19T00:13:21.870Z,12.50
2018-05-19T00:15:49.465Z,12.50
2018-05-19T00:18:17.042Z,12.60
2018-05-19T00:20:44.730Z,12.60
2018-05-19T00:23:12.307Z,12.60
2018-05-19T00:25:39.897Z,12.70
2018-05-19T00:28:08.241Z,12.80
2018-05-19T00:30:35.929Z,12.80
2018-05-19T00:33:03.601Z,12.60
2018-05-19T00:35:31.214Z,12.40
2018-05-19T00:37:59.554Z,12.40
2018-05-19T00:40:27.126Z,12.40
2018-05-19T00:42:54.719Z,12.40
2018-05-19T00:45:22.778Z,12.40
2018-05-19T00:47:50.369Z,12.40
2018-05-19T00:50:17.941Z,12.40
2018-05-19T00:52:45.534Z,12.50
2018-05-19T00:55:13.909Z,12.60
2018-05-19T00:57:41.502Z,12.60
2018-05-19T01:00:11.484Z,12.50
2018-05-19T01:02:39.069Z,12.50
2018-05-19T01:05:06.633Z,12.50
2018-05-19T01:07:34.322Z,12.50
2018-05-19T01:10:01.973Z,12.20
2018-05-19T01:12:30.289Z,11.90
2018-05-19T01:14:57.974Z,11.80
2018-05-19T01:17:25.601Z,11.90
2018-05-19T01:19:53.221Z,12.10
2018-05-19T01:22:22.327Z,12.00
2018-05-19T01:24:50.665Z,11.90
2018-05-19T01:27:18.279Z,11.90
2018-05-19T01:29:45.850Z,11.90
2018-05-19T01:32:13.530Z,11.90
2018-05-19T01:34:41.908Z,12.00
2018-05-19T01:37:09.589Z,11.90
2018-05-19T01:39:37.160Z,12.00
2018-05-19T01:42:04.741Z,12.00
2018-05-19T01:44:32.414Z,11.70
2018-05-19T01:47:00.082Z,11.30
2018-05-19T01:49:27.649Z,11.30
2018-05-19T01:51:55.334Z,11.30
2018-05-19T01:54:22.901Z,11.30
2018-05-19T01:56:50.484Z,11.70
2018-05-19T01:59:18.085Z,11.70
2018-05-19T02:01:46.440Z,11.50
2018-05-19T02:04:14.117Z,11.50
2018-05-19T02:06:41.690Z,11.50
2018-05-19T02:09:09.355Z,11.50
2018-05-19T02:11:37.034Z,11.70
2018-05-19T02:14:04.622Z,11.70
2018-05-19T02:16:32.282Z,11.90
2018-05-19T02:18:59.866Z,12.00
2018-05-19T02:21:28.245Z,12.20
2018-05-19T02:23:55.825Z,12.20
2018-05-19T02:26:23.423Z,12.20
2018-05-19T02:28:51.883Z,12.40
2018-05-19T02:31:20.958Z,12.40
2018-05-19T02:33:48.550Z,12.40
2018-05-19T02:36:16.138Z,12.40
2018-05-19T02:38:43.811Z,12.40
2018-05-19T02:41:11.377Z,12.50
2018-05-19T02:43:38.962Z,12.40
2018-05-19T02:46:06.630Z,12.50
2018-05-19T02:48:34.995Z,12.60
2018-05-19T02:51:02.571Z,12.60
2018-05-19T02:53:30.167Z,12.60
2018-05-19T02:55:57.738Z,12.60
2018-05-19T02:58:25.325Z,12.50
2018-05-19T03:00:52.986Z,12.20
2018-05-19T03:03:20.566Z,11.90
2018-05-19T03:05:48.134Z,11.70
2018-05-19T03:08:15.722Z,11.50
2018-05-19T03:10:43.285Z,11.60
2018-05-19T03:13:10.849Z,11.50
2018-05-19T03:15:38.438Z,11.50
2018-05-19T03:18:06.786Z,11.30
2018-05-19T03:20:34.387Z,11.30
2018-05-19T03:23:01.958Z,11.20
2018-05-19T03:25:31.062Z,11.30
2018-05-19T03:27:58.633Z,11.30
2018-05-19T03:30:26.222Z,11.40
2018-05-19T03:32:54.685Z,11.70
2018-05-19T03:35:22.266Z,11.60
2018-05-19T03:37:49.844Z,11.60
2018-05-19T03:40:17.430Z,11.50
2018-05-19T03:42:46.522Z,11.50
2018-05-19T03:45:14.117Z,11.50
2018-05-19T03:47:41.682Z,11.30
2018-05-19T03:50:09.265Z,11.10
2018-05-19T03:52:36.826Z,11.00
2018-05-19T03:55:04.409Z,10.80
2018-05-19T03:57:44.677Z,10.60
2018-05-19T04:00:24.205Z,10.50
2018-05-19T04:02:51.771Z,10.60
2018-05-19T04:05:19.455Z,10.50
2018-05-19T04:07:47.021Z,10.40
2018-05-19T04:10:14.604Z,10.20
2018-05-19T04:12:43.029Z,10.30
2018-05-19T04:15:11.492Z,10.80
2018-05-19T04:17:39.058Z,10.80
2018-05-19T04:20:06.653Z,10.90
2018-05-19T04:22:35.026Z,10.80
2018-05-19T04:25:02.707Z,10.70
2018-05-19T04:27:30.305Z,10.80
2018-05-19T04:29:57.910Z,10.90
2018-05-19T04:32:25.482Z,10.90
2018-05-19T04:34:53.046Z,10.90
2018-05-19T04:37:20.629Z,11.00
2018-05-19T04:39:48.202Z,11.20
2018-05-19T04:42:15.791Z,11.50
2018-05-19T04:44:43.374Z,11.80
2018-05-19T04:47:10.967Z,11.80
2018-05-19T04:49:39.307Z,12.00
2018-05-19T04:52:06.896Z,12.00
2018-05-19T04:54:34.490Z,11.90
2018-05-19T04:57:02.097Z,11.90
2018-05-19T04:59:29.695Z,11.90
2018-05-19T05:01:57.285Z,11.90
2018-05-19T05:04:24.858Z,11.90
2018-05-19T05:06:52.473Z,11.90
2018-05-19T05:09:20.805Z,12.10
2018-05-19T05:11:48.414Z,12.00
2018-05-19T05:14:15.982Z,12.20
2018-05-19T05:16:43.569Z,12.10
2018-05-19T05:19:11.128Z,12.20
2018-05-19T05:21:38.713Z,12.10
2018-05-19T05:24:06.295Z,12.20
2018-05-19T05:26:34.778Z,12.70
2018-05-19T05:29:02.455Z,12.70
2018-05-19T05:31:30.090Z,12.90
2018-05-19T05:33:57.695Z,13.00
2018-05-19T05:36:25.291Z,13.10
2018-05-19T05:38:53.630Z,13.40
2018-05-19T05:41:21.321Z,13.40
2018-05-19T05:43:48.894Z,13.40
2018-05-19T05:46:16.574Z,13.50
2018-05-19T05:48:44.246Z,13.40
2018-05-19T05:51:11.813Z,13.50
2018-05-19T05:53:39.402Z,13.50
2018-05-19T05:56:06.984Z,13.50
2018-05-19T05:58:35.354Z,13.70
2018-05-19T06:01:02.926Z,13.70
2018-05-19T06:03:30.567Z,13.70
2018-05-19T06:05:58.163Z,13.60
2018-05-19T06:08:25.754Z,13.70
2018-05-19T06:10:53.372Z,13.70
2018-05-19T06:13:20.954Z,13.80
2018-05-19T06:15:48.526Z,14.00
2018-05-19T06:18:16.118Z,13.90
2018-05-19T06:20:43.693Z,13.80
2018-05-19T06:23:11.344Z,13.70
2018-05-19T06:25:38.923Z,13.90
2018-05-19T06:28:06.529Z,13.70
2018-05-19T06:30:34.122Z,13.60
2018-05-19T06:33:02.486Z,13.20
2018-05-19T06:35:30.074Z,13.20
2018-05-19T06:37:58.450Z,13.20
2018-05-19T06:40:26.022Z,13.10
2018-05-19T06:42:53.614Z,13.30
2018-05-19T06:45:21.186Z,13.50
2018-05-19T06:47:49.609Z,14.00
2018-05-19T06:50:17.926Z,14.30
2018-05-19T06:52:45.517Z,14.20
2018-05-19T06:55:13.082Z,14.40
2018-05-19T06:57:40.717Z,14.50
2018-05-19T07:00:09.041Z,14.60
2018-05-19T07:02:36.624Z,14.60
2018-05-19T07:05:04.219Z,14.30
2018-05-19T07:07:31.821Z,14.40
2018-05-19T07:09:59.435Z,14.40
2018-05-19T07:12:27.025Z,14.50
2018-05-19T07:14:54.754Z,14.50
2018-05-19T07:17:22.382Z,14.50
2018-05-19T07:19:50.049Z,14.50
2018-05-19T07:22:17.614Z,14.30
2018-05-19T07:24:45.199Z,14.30
2018-05-19T07:27:12.870Z,14.40
2018-05-19T07:29:40.458Z,14.50
2018-05-19T07:32:08.046Z,14.50
2018-05-19T07:34:36.407Z,14.50
2018-05-19T07:37:04.001Z,14.50
2018-05-19T07:39:32.392Z,14.60
2018-05-19T07:41:59.992Z,14.60
2018-05-19T07:44:27.587Z,14.70
2018-05-19T07:46:56.307Z,14.30
2018-05-19T07:49:23.899Z,14.40
2018-05-19T07:51:51.469Z,14.50
2018-05-19T07:54:19.054Z,14.70
2018-05-19T07:56:46.622Z,14.80
2018-05-19T07:59:14.211Z,14.60
2018-05-19T08:01:42.634Z,14.20
2018-05-19T08:04:10.303Z,14.20
2018-05-19T08:06:37.834Z,14.20
2018-05-19T08:09:07.055Z,14.40
2018-05-19T08:11:35.406Z,14.60
2018-05-19T08:14:03.020Z,14.60
2018-05-19T08:16:31.425Z,15.10
2018-05-19T08:18:59.081Z,15.00
2018-05-19T08:21:27.421Z,15.40
2018-05-19T08:23:54.990Z,15.40
2018-05-19T08:26:22.597Z,15.50
2018-05-19T08:28:51.017Z,15.50
2018-05-19T08:31:19.370Z,15.40
2018-05-19T08:33:46.933Z,15.40
2018-05-19T08:36:14.518Z,15.40
2018-05-19T08:38:42.099Z,15.30
2018-05-19T08:41:09.750Z,15.40
2018-05-19T08:43:37.300Z,15.60
2018-05-19T08:46:05.822Z,15.70
2018-05-19T08:48:33.403Z,15.50
2018-05-19T08:51:01.059Z,15.60
2018-05-19T08:53:28.706Z,15.90
2018-05-19T08:55:56.452Z,15.70
2018-05-19T08:58:24.081Z,15.70
2018-05-19T09:00:51.694Z,15.90
2018-05-19T09:03:19.262Z,15.80
2018-05-19T09:05:46.861Z,16.00
2018-05-19T09:08:15.200Z,16.10
2018-05-19T09:10:42.921Z,16.10
2018-05-19T09:13:11.249Z,16.20
2018-05-19T09:15:38.834Z,16.20
2018-05-19T09:18:07.115Z,16.10
2018-05-19T09:20:35.545Z,16.20
2018-05-19T09:23:03.128Z,16.20
2018-05-19T09:25:30.718Z,16.10
2018-05-19T09:27:58.292Z,16.10
2018-05-19T09:30:25.894Z,16.10
2018-05-19T09:32:53.457Z,16.20
2018-05-19T09:35:21.710Z,16.20
2018-05-19T09:37:50.043Z,16.20
2018-05-19T09:40:17.613Z,16.20
2018-05-19T09:42:45.193Z,16.20
2018-05-19T09:45:12.755Z,16.40
2018-05-19T09:47:40.436Z,16.40
2018-05-19T09:50:07.951Z,16.50
2018-05-19T09:52:35.546Z,16.50
2018-05-19T09:55:03.893Z,16.50
2018-05-19T09:57:31.668Z,16.50
2018-05-19T09:59:59.365Z,16.50
2018-05-19T10:02:28.259Z,16.40
2018-05-19T10:04:55.866Z,16.40
2018-05-19T10:07:24.220Z,16.30
2018-05-19T10:09:51.791Z,16.30
2018-05-19T10:12:19.382Z,16.60
2018-05-19T10:14:46.949Z,16.80
2018-05-19T10:17:14.542Z,16.80
2018-05-19T10:19:42.882Z,16.40
2018-05-19T10:22:10.469Z,16.40
2018-05-19T10:24:39.545Z,16.30
2018-05-19T10:27:07.155Z,16.30
2018-05-19T10:29:34.762Z,16.40
2018-05-19T10:32:02.464Z,16.50
2018-05-19T10:34:30.444Z,16.50
2018-05-19T10:36:58.049Z,16.60
2018-05-19T10:39:25.625Z,16.60
2018-05-19T10:41:53.212Z,16.40
2018-05-19T10:44:21.566Z,16.40
2018-05-19T10:46:49.154Z,16.40
2018-05-19T10:49:16.754Z,16.40
2018-05-19T10:51:44.333Z,16.50
2018-05-19T10:54:12.668Z,16.60
2018-05-19T10:56:40.233Z,16.60
2018-05-19T10:59:07.843Z,16.60
2018-05-19T11:01:35.414Z,16.60
2018-05-19T11:04:03.035Z,16.60
2018-05-19T11:06:30.652Z,16.50
2018-05-19T11:08:58.270Z,16.50
2018-05-19T11:11:25.846Z,16.50
2018-05-19T11:13:54.198Z,16.40
2018-05-19T11:16:21.777Z,16.40
2018-05-19T11:18:49.461Z,16.40
2018-05-19T11:21:16.953Z,16.70
2018-05-19T11:23:44.550Z,16.90
2018-05-19T11:26:12.113Z,17.10
2018-05-19T11:28:39.704Z,16.90
2018-05-19T11:31:07.290Z,16.70
2018-05-19T11:33:34.915Z,16.80
2018-05-19T11:36:02.580Z,16.80
2018-05-19T11:38:30.234Z,16.70
2018-05-19T11:40:58.602Z,16.70
2018-05-19T11:43:26.193Z,16.70
2018-05-19T11:45:53.763Z,16.80
2018-05-19T11:48:21.350Z,16.60
2018-05-19T11:50:48.922Z,16.70
2018-05-19T11:53:16.510Z,16.90
2018-05-19T11:55:44.841Z,16.90
2018-05-19T11:58:12.430Z,16.90
2018-05-19T12:00:40.001Z,16.90
2018-05-19T12:03:07.756Z,17.20
2018-05-19T12:05:35.340Z,17.20
2018-05-19T12:08:02.925Z,17.30
2018-05-19T12:10:30.646Z,17.10
2018-05-19T12:12:59.012Z,16.80
2018-05-19T12:15:27.494Z,16.80
2018-05-19T12:17:55.061Z,16.80
2018-05-19T12:20:22.648Z,17.00
2018-05-19T12:22:50.322Z,17.00
2018-05-19T12:25:18.602Z,17.30
2018-05-19T12:27:46.195Z,17.30
2018-05-19T12:30:14.571Z,17.70
2018-05-19T12:32:42.151Z,17.70
2018-05-19T12:35:09.743Z,17.60
2018-05-19T12:37:38.175Z,17.50
2018-05-19T12:40:05.961Z,17.40
2018-05-19T12:42:33.586Z,17.20
2018-05-19T12:45:01.945Z,17.40
2018-05-19T12:47:29.621Z,17.40
2018-05-19T12:49:57.211Z,17.40
2018-05-19T12:52:24.778Z,17.30
2018-05-19T12:54:52.455Z,17.20
2018-05-19T12:57:20.024Z,17.30
2018-05-19T12:59:47.614Z,17.10
2018-05-19T13:02:15.199Z,17.10
2018-05-19T13:04:44.019Z,17.20
2018-05-19T13:07:11.665Z,17.20
2018-05-19T13:09:40.053Z,17.50
2018-05-19T13:12:07.650Z,17.50
2018-05-19T13:14:35.276Z,17.80
2018-05-19T13:17:02.846Z,17.50
2018-05-19T13:19:30.694Z,17.20
2018-05-19T13:21:58.281Z,17.40
2018-05-19T13:24:26.525Z,17.50
2018-05-19T13:26:54.879Z,17.40
2018-05-19T13:29:22.501Z,17.40
2018-05-19T13:31:50.855Z,17.10
2018-05-19T13:34:18.425Z,17.10
2018-05-19T13:36:46.009Z,17.00
2018-05-19T13:39:13.593Z,16.80
2018-05-19T13:41:41.966Z,16.90
2018-05-19T13:44:09.571Z,16.90
2018-05-19T13:46:37.275Z,17.00
2018-05-19T13:49:04.880Z,17.00
2018-05-19T13:51:32.481Z,17.00
2018-05-19T13:54:00.845Z,17.30
2018-05-19T13:56:28.452Z,17.30
2018-05-19T13:58:56.808Z,17.60
2018-05-19T14:01:25.308Z,17.60
2018-05-19T14:03:52.882Z,17.50
2018-05-19T14:06:20.467Z,17.60
2018-05-19T14:08:48.810Z,17.90
2018-05-19T14:11:16.398Z,17.80
2018-05-19T14:13:43.972Z,17.80
2018-05-19T14:16:11.557Z,17.50
2018-05-19T14:18:39.133Z,17.20
2018-05-19T14:21:06.735Z,17.40
2018-05-19T14:23:35.082Z,17.80
2018-05-19T14:26:02.687Z,17.80
2018-05-19T14:28:31.165Z,17.70
2018-05-19T14:30:59.529Z,17.80
2018-05-19T14:33:27.109Z,17.80
2018-05-19T14:35:54.708Z,17.60
2018-05-19T14:38:22.328Z,17.50
2018-05-19T14:40:49.914Z,17.50
2018-05-19T14:43:17.506Z,17.30
2018-05-19T14:45:45.087Z,17.30
2018-05-19T14:48:12.702Z,17.30
2018-05-19T14:50:40.291Z,17.60
2018-05-19T14:53:07.886Z,17.70
2018-05-19T14:55:35.460Z,18.00
2018-05-19T14:58:03.054Z,18.00
2018-05-19T15:00:30.622Z,18.00
2018-05-19T15:02:58.209Z,18.00
2018-05-19T15:05:25.776Z,18.10
2018-05-19T15:07:53.371Z,18.20
2018-05-19T15:10:21.705Z,18.10
2018-05-19T15:12:49.298Z,18.10
2018-05-19T15:15:16.891Z,17.90
2018-05-19T15:17:45.427Z,17.50
2018-05-19T15:20:13.009Z,17.50
2018-05-19T15:22:40.610Z,17.60
2018-05-19T15:25:08.186Z,17.70
2018-05-19T15:27:35.777Z,17.60
2018-05-19T15:30:04.196Z,17.30
2018-05-19T15:32:31.746Z,17.30
2018-05-19T15:35:00.090Z,17.40
2018-05-19T15:37:27.673Z,17.30
2018-05-19T15:39:55.258Z,17.50
2018-05-19T15:42:22.858Z,17.40
2018-05-19T15:44:51.206Z,17.10
2018-05-19T15:47:18.853Z,17.10
2018-05-19T15:49:47.170Z,17.50
2018-05-19T15:52:14.758Z,17.50
2018-05-19T15:54:42.350Z,17.70
2018-05-19T15:57:10.685Z,17.80
2018-05-19T15:59:38.270Z,17.80
2018-05-19T16:02:05.839Z,17.90
2018-05-19T16:04:33.434Z,17.90
2018-05-19T16:07:01.030Z,18.10
2018-05-19T16:09:29.406Z,18.30
2018-05-19T16:11:56.995Z,18.30
2018-05-19T16:14:25.424Z,18.30
2018-05-19T16:16:53.098Z,18.30
2018-05-19T16:19:20.626Z,18.20
2018-05-19T16:21:48.193Z,18.40
2018-05-19T16:24:15.786Z,18.50
2018-05-19T16:26:44.117Z,18.10
2018-05-19T16:29:11.745Z,18.10
2018-05-19T16:31:40.096Z,17.80
2018-05-19T16:34:07.701Z,17.80
2018-05-19T16:36:36.041Z,17.80
2018-05-19T16:39:03.674Z,17.70
2018-05-19T16:41:32.013Z,17.80
2018-05-19T16:43:59.606Z,17.80
2018-05-19T16:46:27.198Z,17.70
2018-05-19T16:48:54.786Z,17.70
2018-05-19T16:51:23.117Z,17.30
2018-05-19T16:53:50.697Z,17.30
2018-05-19T16:56:19.034Z,17.00
2018-05-19T16:58:47.381Z,16.80
2018-05-19T17:01:15.697Z,16.80
2018-05-19T17:03:43.291Z,16.70
2018-05-19T17:06:10.890Z,16.60
2018-05-19T17:08:39.243Z,16.60
2018-05-19T17:11:07.578Z,16.40
2018-05-19T17:13:35.138Z,16.40
2018-05-19T17:16:02.726Z,16.40
2018-05-19T17:18:30.289Z,16.30
2018-05-19T17:20:57.871Z,16.30
2018-05-19T17:23:25.446Z,16.40
2018-05-19T17:25:53.101Z,16.30
2018-05-19T17:28:21.715Z,16.30
2018-05-19T17:30:50.073Z,16.30
2018-05-19T17:33:18.426Z,16.40
2018-05-19T17:35:46.018Z,16.40
2018-05-19T17:38:14.349Z,16.30
2018-05-19T17:40:41.934Z,16.30
2018-05-19T17:43:09.590Z,16.30
2018-05-19T17:45:38.136Z,16.30
2018-05-19T17:48:05.710Z,16.40
2018-05-19T17:50:33.293Z,16.30
2018-05-19T17:53:01.635Z,16.30
2018-05-19T17:55:29.226Z,16.30
2018-05-19T17:57:56.789Z,16.40
2018-05-19T18:00:24.377Z,16.40
2018-05-19T18:02:52.102Z,16.40
2018-05-19T18:05:19.791Z,16.30
2018-05-19T18:07:47.389Z,16.40
2018-05-19T18:10:14.969Z,16.30
2018-05-19T18:12:42.530Z,16.20
2018-05-19T18:15:10.118Z,16.00
2018-05-19T18:17:37.690Z,16.00
2018-05-19T18:20:05.293Z,15.90
2018-05-19T18:22:32.873Z,15.80
2018-05-19T18:25:01.225Z,15.50
2018-05-19T18:27:28.781Z,15.50
2018-05-19T18:29:56.386Z,15.40
2018-05-19T18:32:23.959Z,15.20
2018-05-19T18:34:52.341Z,15.00
2018-05-19T18:37:19.929Z,14.90
2018-05-19T18:39:48.298Z,14.80
2018-05-19T18:42:15.893Z,14.70
2018-05-19T18:44:44.266Z,14.70
2018-05-19T18:47:11.848Z,14.70
2018-05-19T18:49:40.196Z,14.50
2018-05-19T18:52:07.794Z,14.50
2018-05-19T18:54:35.433Z,14.50
2018-05-19T18:57:03.025Z,14.40
2018-05-19T18:59:30.590Z,14.40
2018-05-19T19:01:58.179Z,14.30
2018-05-19T19:04:25.743Z,14.20
2018-05-19T19:06:54.095Z,14.00
2018-05-19T19:09:21.662Z,14.00
2018-05-19T19:11:49.250Z,14.00
2018-05-19T19:14:16.823Z,13.90
2018-05-19T19:16:44.410Z,13.90
2018-05-19T19:19:11.977Z,13.90
2018-05-19T19:21:39.558Z,13.90
2018-05-19T19:24:07.138Z,13.90
2018-05-19T19:26:34.730Z,13.90
2018-05-19T19:29:02.293Z,13.90
2018-05-19T19:31:29.881Z,13.90
2018-05-19T19:33:57.454Z,13.80
2018-05-19T19:36:25.041Z,13.80
2018-05-19T19:38:53.369Z,13.70
2018-05-19T19:41:20.968Z,13.70
2018-05-19T19:43:48.538Z,13.70
2018-05-19T19:46:16.113Z,13.70
2018-05-19T19:48:43.726Z,13.80
2018-05-19T19:51:12.064Z,13.80
2018-05-19T19:53:39.725Z,13.80
2018-05-19T19:56:07.233Z,13.90
2018-05-19T19:58:34.819Z,13.80
2018-05-19T20:01:02.391Z,13.80
2018-05-19T20:03:29.986Z,13.70
2018-05-19T20:05:58.330Z,13.60
2018-05-19T20:08:25.990Z,13.50
2018-05-19T20:10:53.559Z,13.50
2018-05-19T20:13:21.162Z,13.50
2018-05-19T20:15:48.733Z,13.50
2018-05-19T20:18:16.325Z,13.50
2018-05-19T20:20:44.661Z,13.50
2018-05-19T20:23:12.245Z,13.50
2018-05-19T20:25:39.892Z,13.40
2018-05-19T20:28:07.437Z,13.50
2018-05-19T20:30:35.779Z,13.50
2018-05-19T20:33:03.373Z,13.40
2018-05-19T20:35:30.945Z,13.50
2018-05-19T20:37:58.553Z,13.50
2018-05-19T20:40:26.140Z,13.50
2018-05-19T20:42:53.725Z,13.50
2018-05-19T20:45:21.294Z,13.50
2018-05-19T20:47:48.881Z,13.50
2018-05-19T20:50:17.075Z,13.50
2018-05-19T20:52:44.681Z,13.50
2018-05-19T20:55:12.257Z,13.50
2018-05-19T20:57:40.647Z,13.50
2018-05-19T21:00:09.003Z,13.50
2018-05-19T21:02:36.609Z,13.50
2018-05-19T21:05:04.986Z,13.60
2018-05-19T21:07:32.557Z,13.60
2018-05-19T21:10:00.142Z,13.60
2018-05-19T21:12:27.711Z,13.70
2018-05-19T21:14:55.306Z,13.70
2018-05-19T21:17:23.646Z,13.70
2018-05-19T21:19:51.234Z,13.70
2018-05-19T21:22:18.795Z,13.70
2018-05-19T21:24:46.382Z,13.70
2018-05-19T21:27:13.957Z,13.70
2018-05-19T21:29:41.549Z,13.60
2018-05-19T21:32:09.886Z,13.40
2018-05-19T21:34:37.466Z,13.40
2018-05-19T21:37:05.042Z,13.40
2018-05-19T21:39:32.630Z,13.30
2018-05-19T21:42:00.210Z,13.30
2018-05-19T21:44:27.802Z,13.30
2018-05-19T21:46:56.141Z,13.20
2018-05-19T21:49:23.730Z,13.20
2018-05-19T21:51:51.301Z,13.20
2018-05-19T21:54:18.902Z,13.20
2018-05-19T21:56:47.251Z,13.20
2018-05-19T21:59:14.846Z,13.20
2018-05-19T22:01:43.227Z,12.60
2018-05-19T22:04:10.842Z,12.50
2018-05-19T22:06:38.418Z,12.30
2018-05-19T22:09:06.775Z,12.50
2018-05-19T22:11:34.345Z,12.50
2018-05-19T22:14:01.943Z,12.70
2018-05-19T22:16:29.551Z,12.90
2018-05-19T22:18:57.140Z,13.10
2018-05-19T22:21:24.741Z,13.20
2018-05-19T22:23:53.193Z,13.20
2018-05-19T22:26:20.794Z,13.10
2018-05-19T22:28:48.374Z,13.10
2018-05-19T22:31:15.970Z,13.10
2018-05-19T22:33:44.305Z,12.70
2018-05-19T22:36:11.894Z,12.70
2018-05-19T22:38:39.465Z,12.70
2018-05-19T22:41:07.060Z,12.70
2018-05-19T22:43:34.642Z,12.60
2018-05-19T22:46:03.010Z,12.10
2018-05-19T22:48:30.611Z,12.00
2018-05-19T22:50:58.965Z,12.20
2018-05-19T22:53:26.542Z,12.10
2018-05-19T22:55:54.130Z,12.30
2018-05-19T22:58:21.701Z,12.20
2018-05-19T23:00:49.293Z,11.90
2018-05-19T23:03:17.640Z,11.80
2018-05-19T23:05:45.236Z,11.80
2018-05-19T23:08:12.895Z,11.50
2018-05-19T23:10:40.490Z,11.20
2018-05-19T23:13:08.066Z,11.20
2018-05-19T23:15:35.649Z,11.00
2018-05-19T23:18:03.209Z,10.90
2018-05-19T23:20:30.795Z,10.70
2018-05-19T23:22:59.130Z,10.70
2018-05-19T23:25:26.717Z,10.80
2018-05-19T23:27:54.287Z,11.00
2018-05-19T23:30:21.889Z,11.10
2018-05-19T23:32:49.453Z,11.20
2018-05-19T23:35:17.037Z,11.10
2018-05-19T23:37:44.631Z,11.00
2018-05-19T23:40:12.964Z,10.80
2018-05-19T23:42:40.553Z,10.80
2018-05-19T23:45:08.113Z,10.80
2018-05-19T23:47:35.691Z,10.80
2018-05-19T23:50:03.261Z,11.00
2018-05-19T23:52:31.609Z,11.60
2018-05-19T23:54:59.179Z,11.60
2018-05-19T23:57:26.771Z,11.80
2018-05-19T23:59:54.350Z,11.70
